sensor_id;sensor_type;location;lat;lon;timestamp;P1;durP1;ratioP1;P2;durP2;ratioP2
31754;SDS011;18325;52.018;4.726;2022-09-09T00:00:21;2.37;;;1.33;;
31754;SDS011;18325;52.018;4.726;2022-09-09T00:02:50;4.07;;;1.50;;
31754;SDS011;18325;52.018;4.726;2022-09-09T00:05:23;3.83;;;1.73;;
31754;SDS011;18325;52.018;4.726;2022-09-09T00:07:57;2.40;;;1.60;;
31754;SDS011;18325;52.018;4.726;2022-09-09T00:10:29;3.93;;;1.90;;
31754;SDS011;18325;52.018;4.726;2022-09-09T00:12:57;2.70;;;1.77;;
31754;SDS011;18325;52.018;4.726;2022-09-09T00:15:28;1.83;;;1.40;;
31754;SDS011;18325;52.018;4.726;2022-09-09T00:18:01;3.67;;;1.80;;
31754;SDS011;18325;52.018;4.726;2022-09-09T00:20:37;3.47;;;1.80;;
31754;SDS011;18325;52.018;4.726;2022-09-09T00:23:06;1.70;;;1.57;;
31754;SDS011;18325;52.018;4.726;2022-09-09T00:25:40;4.27;;;1.83;;
31754;SDS011;18325;52.018;4.726;2022-09-09T00:28:11;4.50;;;2.10;;
31754;SDS011;18325;52.018;4.726;2022-09-09T00:30:40;2.77;;;1.90;;
31754;SDS011;18325;52.018;4.726;2022-09-09T00:33:09;2.67;;;1.73;;
31754;SDS011;18325;52.018;4.726;2022-09-09T00:35:43;3.70;;;2.07;;
31754;SDS011;18325;52.018;4.726;2022-09-09T00:38:12;4.73;;;2.13;;
31754;SDS011;18325;52.018;4.726;2022-09-09T00:40:41;2.57;;;1.83;;
31754;SDS011;18325;52.018;4.726;2022-09-09T00:43:21;2.43;;;2.00;;
31754;SDS011;18325;52.018;4.726;2022-09-09T00:45:54;3.13;;;1.90;;
31754;SDS011;18325;52.018;4.726;2022-09-09T00:48:30;3.87;;;1.97;;
31754;SDS011;18325;52.018;4.726;2022-09-09T00:51:02;2.03;;;1.83;;
31754;SDS011;18325;52.018;4.726;2022-09-09T00:53:36;4.23;;;2.17;;
31754;SDS011;18325;52.018;4.726;2022-09-09T00:56:11;4.70;;;2.27;;
31754;SDS011;18325;52.018;4.726;2022-09-09T00:58:39;3.00;;;2.10;;
31754;SDS011;18325;52.018;4.726;2022-09-09T01:01:09;4.07;;;1.97;;
31754;SDS011;18325;52.018;4.726;2022-09-09T01:03:37;4.37;;;2.20;;
31754;SDS011;18325;52.018;4.726;2022-09-09T01:06:13;4.03;;;2.03;;
31754;SDS011;18325;52.018;4.726;2022-09-09T01:08:52;2.80;;;2.03;;
31754;SDS011;18325;52.018;4.726;2022-09-09T01:11:37;3.93;;;2.40;;
31754;SDS011;18325;52.018;4.726;2022-09-09T01:14:13;3.97;;;2.40;;
31754;SDS011;18325;52.018;4.726;2022-09-09T01:16:43;2.57;;;2.10;;
31754;SDS011;18325;52.018;4.726;2022-09-09T01:19:10;4.03;;;2.40;;
31754;SDS011;18325;52.018;4.726;2022-09-09T01:21:50;2.90;;;2.20;;
31754;SDS011;18325;52.018;4.726;2022-09-09T01:24:22;4.97;;;2.30;;
31754;SDS011;18325;52.018;4.726;2022-09-09T01:26:54;5.13;;;2.20;;
31754;SDS011;18325;52.018;4.726;2022-09-09T01:29:21;5.80;;;2.70;;
31754;SDS011;18325;52.018;4.726;2022-09-09T01:31:52;3.30;;;2.50;;
31754;SDS011;18325;52.018;4.726;2022-09-09T01:34:20;4.17;;;2.50;;
31754;SDS011;18325;52.018;4.726;2022-09-09T01:36:47;3.23;;;2.40;;
31754;SDS011;18325;52.018;4.726;2022-09-09T01:39:17;5.00;;;2.53;;
31754;SDS011;18325;52.018;4.726;2022-09-09T01:41:44;4.13;;;2.37;;
31754;SDS011;18325;52.018;4.726;2022-09-09T01:44:12;5.67;;;2.60;;
31754;SDS011;18325;52.018;4.726;2022-09-09T01:46:38;4.13;;;2.30;;
31754;SDS011;18325;52.018;4.726;2022-09-09T01:49:06;4.70;;;2.63;;
31754;SDS011;18325;52.018;4.726;2022-09-09T01:51:33;4.27;;;2.70;;
31754;SDS011;18325;52.018;4.726;2022-09-09T01:54:00;4.07;;;2.90;;
31754;SDS011;18325;52.018;4.726;2022-09-09T01:56:31;4.80;;;2.53;;
31754;SDS011;18325;52.018;4.726;2022-09-09T01:59:07;5.17;;;3.10;;
31754;SDS011;18325;52.018;4.726;2022-09-09T02:01:43;3.87;;;2.50;;
31754;SDS011;18325;52.018;4.726;2022-09-09T02:04:18;5.50;;;2.63;;
31754;SDS011;18325;52.018;4.726;2022-09-09T02:06:50;6.43;;;2.80;;
31754;SDS011;18325;52.018;4.726;2022-09-09T02:09:19;4.10;;;2.53;;
31754;SDS011;18325;52.018;4.726;2022-09-09T02:11:49;4.17;;;2.57;;
31754;SDS011;18325;52.018;4.726;2022-09-09T02:14:23;5.20;;;2.87;;
31754;SDS011;18325;52.018;4.726;2022-09-09T02:16:52;4.73;;;2.57;;
31754;SDS011;18325;52.018;4.726;2022-09-09T02:19:22;5.97;;;3.00;;
31754;SDS011;18325;52.018;4.726;2022-09-09T02:21:52;7.10;;;3.00;;
31754;SDS011;18325;52.018;4.726;2022-09-09T02:24:20;7.37;;;3.10;;
31754;SDS011;18325;52.018;4.726;2022-09-09T02:26:47;5.67;;;2.90;;
31754;SDS011;18325;52.018;4.726;2022-09-09T02:29:17;5.47;;;2.70;;
31754;SDS011;18325;52.018;4.726;2022-09-09T02:31:47;3.57;;;3.00;;
31754;SDS011;18325;52.018;4.726;2022-09-09T02:34:14;6.47;;;2.67;;
31754;SDS011;18325;52.018;4.726;2022-09-09T02:36:42;3.73;;;2.73;;
31754;SDS011;18325;52.018;4.726;2022-09-09T02:39:10;6.00;;;2.97;;
31754;SDS011;18325;52.018;4.726;2022-09-09T02:41:38;4.90;;;3.03;;
31754;SDS011;18325;52.018;4.726;2022-09-09T02:44:08;7.27;;;3.17;;
31754;SDS011;18325;52.018;4.726;2022-09-09T02:46:43;4.93;;;2.93;;
31754;SDS011;18325;52.018;4.726;2022-09-09T02:49:19;4.03;;;3.00;;
31754;SDS011;18325;52.018;4.726;2022-09-09T02:51:52;5.40;;;3.53;;
31754;SDS011;18325;52.018;4.726;2022-09-09T02:54:21;5.30;;;3.20;;
31754;SDS011;18325;52.018;4.726;2022-09-09T02:56:55;4.13;;;3.17;;
31754;SDS011;18325;52.018;4.726;2022-09-09T02:59:26;6.93;;;3.40;;
31754;SDS011;18325;52.018;4.726;2022-09-09T03:01:54;5.67;;;3.40;;
31754;SDS011;18325;52.018;4.726;2022-09-09T03:04:20;6.73;;;3.60;;
31754;SDS011;18325;52.018;4.726;2022-09-09T03:06:46;10.07;;;3.93;;
31754;SDS011;18325;52.018;4.726;2022-09-09T03:09:14;7.77;;;3.27;;
31754;SDS011;18325;52.018;4.726;2022-09-09T03:11:40;6.20;;;3.57;;
31754;SDS011;18325;52.018;4.726;2022-09-09T03:14:07;6.87;;;3.00;;
31754;SDS011;18325;52.018;4.726;2022-09-09T03:16:33;4.67;;;3.43;;
31754;SDS011;18325;52.018;4.726;2022-09-09T03:19:01;8.07;;;3.67;;
31754;SDS011;18325;52.018;4.726;2022-09-09T03:21:28;7.50;;;3.40;;
31754;SDS011;18325;52.018;4.726;2022-09-09T03:23:55;5.97;;;3.07;;
31754;SDS011;18325;52.018;4.726;2022-09-09T03:26:22;7.60;;;3.20;;
31754;SDS011;18325;52.018;4.726;2022-09-09T03:28:48;9.43;;;3.60;;
31754;SDS011;18325;52.018;4.726;2022-09-09T03:31:16;7.63;;;3.17;;
31754;SDS011;18325;52.018;4.726;2022-09-09T03:33:44;4.50;;;2.87;;
31754;SDS011;18325;52.018;4.726;2022-09-09T03:36:12;9.30;;;3.80;;
31754;SDS011;18325;52.018;4.726;2022-09-09T03:38:39;6.03;;;3.13;;
31754;SDS011;18325;52.018;4.726;2022-09-09T03:41:05;4.13;;;3.10;;
31754;SDS011;18325;52.018;4.726;2022-09-09T03:43:33;5.03;;;3.27;;
31754;SDS011;18325;52.018;4.726;2022-09-09T03:45:59;5.60;;;2.83;;
31754;SDS011;18325;52.018;4.726;2022-09-09T03:48:26;4.33;;;2.90;;
31754;SDS011;18325;52.018;4.726;2022-09-09T03:50:54;3.57;;;2.57;;
31754;SDS011;18325;52.018;4.726;2022-09-09T03:53:24;5.03;;;3.37;;
31754;SDS011;18325;52.018;4.726;2022-09-09T03:55:51;6.03;;;3.40;;
31754;SDS011;18325;52.018;4.726;2022-09-09T03:58:19;6.20;;;2.53;;
31754;SDS011;18325;52.018;4.726;2022-09-09T04:00:52;5.30;;;3.17;;
31754;SDS011;18325;52.018;4.726;2022-09-09T04:03:19;4.97;;;2.57;;
31754;SDS011;18325;52.018;4.726;2022-09-09T04:05:48;5.03;;;2.40;;
31754;SDS011;18325;52.018;4.726;2022-09-09T04:08:14;4.20;;;2.53;;
31754;SDS011;18325;52.018;4.726;2022-09-09T04:10:42;5.20;;;2.43;;
31754;SDS011;18325;52.018;4.726;2022-09-09T04:13:10;6.63;;;2.53;;
31754;SDS011;18325;52.018;4.726;2022-09-09T04:15:38;6.73;;;2.17;;
31754;SDS011;18325;52.018;4.726;2022-09-09T04:18:04;4.70;;;2.27;;
31754;SDS011;18325;52.018;4.726;2022-09-09T04:20:31;3.37;;;2.33;;
31754;SDS011;18325;52.018;4.726;2022-09-09T04:22:57;3.73;;;1.90;;
31754;SDS011;18325;52.018;4.726;2022-09-09T04:25:24;4.03;;;2.20;;
31754;SDS011;18325;52.018;4.726;2022-09-09T04:27:54;3.90;;;2.13;;
31754;SDS011;18325;52.018;4.726;2022-09-09T04:30:21;5.80;;;2.57;;
31754;SDS011;18325;52.018;4.726;2022-09-09T04:32:47;3.03;;;1.93;;
31754;SDS011;18325;52.018;4.726;2022-09-09T04:35:14;2.33;;;1.83;;
31754;SDS011;18325;52.018;4.726;2022-09-09T04:37:41;5.23;;;2.27;;
31754;SDS011;18325;52.018;4.726;2022-09-09T04:40:08;4.23;;;1.87;;
31754;SDS011;18325;52.018;4.726;2022-09-09T04:42:35;4.50;;;1.97;;
31754;SDS011;18325;52.018;4.726;2022-09-09T04:45:03;5.90;;;2.17;;
31754;SDS011;18325;52.018;4.726;2022-09-09T04:47:30;3.33;;;1.70;;
31754;SDS011;18325;52.018;4.726;2022-09-09T04:49:56;5.37;;;2.23;;
31754;SDS011;18325;52.018;4.726;2022-09-09T04:52:23;5.37;;;1.80;;
31754;SDS011;18325;52.018;4.726;2022-09-09T04:54:49;2.90;;;1.80;;
31754;SDS011;18325;52.018;4.726;2022-09-09T04:57:16;2.43;;;1.80;;
31754;SDS011;18325;52.018;4.726;2022-09-09T04:59:42;4.47;;;1.80;;
31754;SDS011;18325;52.018;4.726;2022-09-09T05:02:11;3.20;;;1.83;;
31754;SDS011;18325;52.018;4.726;2022-09-09T05:04:38;7.77;;;1.87;;
31754;SDS011;18325;52.018;4.726;2022-09-09T05:07:04;6.77;;;1.70;;
31754;SDS011;18325;52.018;4.726;2022-09-09T05:09:31;4.50;;;1.93;;
31754;SDS011;18325;52.018;4.726;2022-09-09T05:11:58;1.33;;;1.20;;
31754;SDS011;18325;52.018;4.726;2022-09-09T05:14:24;5.07;;;2.00;;
31754;SDS011;18325;52.018;4.726;2022-09-09T05:16:51;4.47;;;2.17;;
31754;SDS011;18325;52.018;4.726;2022-09-09T05:19:19;4.23;;;2.10;;
31754;SDS011;18325;52.018;4.726;2022-09-09T05:21:45;3.57;;;1.80;;
31754;SDS011;18325;52.018;4.726;2022-09-09T05:24:12;3.33;;;2.03;;
31754;SDS011;18325;52.018;4.726;2022-09-09T05:26:39;3.23;;;1.57;;
31754;SDS011;18325;52.018;4.726;2022-09-09T05:29:05;1.60;;;1.40;;
31754;SDS011;18325;52.018;4.726;2022-09-09T05:31:31;4.67;;;2.23;;
31754;SDS011;18325;52.018;4.726;2022-09-09T05:33:58;7.00;;;1.80;;
31754;SDS011;18325;52.018;4.726;2022-09-09T05:36:26;3.83;;;1.90;;
31754;SDS011;18325;52.018;4.726;2022-09-09T05:38:53;4.50;;;1.50;;
31754;SDS011;18325;52.018;4.726;2022-09-09T05:41:19;5.17;;;1.43;;
31754;SDS011;18325;52.018;4.726;2022-09-09T05:43:47;5.37;;;2.00;;
31754;SDS011;18325;52.018;4.726;2022-09-09T05:46:14;2.83;;;1.80;;
31754;SDS011;18325;52.018;4.726;2022-09-09T05:48:43;1.97;;;1.73;;
31754;SDS011;18325;52.018;4.726;2022-09-09T05:51:12;3.17;;;1.83;;
31754;SDS011;18325;52.018;4.726;2022-09-09T05:53:42;7.33;;;1.63;;
31754;SDS011;18325;52.018;4.726;2022-09-09T05:56:09;8.93;;;2.40;;
31754;SDS011;18325;52.018;4.726;2022-09-09T05:58:39;4.27;;;1.60;;
31754;SDS011;18325;52.018;4.726;2022-09-09T06:01:09;6.40;;;2.10;;
31754;SDS011;18325;52.018;4.726;2022-09-09T06:03:37;4.67;;;1.97;;
31754;SDS011;18325;52.018;4.726;2022-09-09T06:06:05;4.27;;;1.50;;
31754;SDS011;18325;52.018;4.726;2022-09-09T06:08:33;3.43;;;1.90;;
31754;SDS011;18325;52.018;4.726;2022-09-09T06:20:52;6.73;;;1.80;;
31754;SDS011;18325;52.018;4.726;2022-09-09T06:40:10;4.03;;;1.80;;
31754;SDS011;18325;52.018;4.726;2022-09-09T06:45:52;9.13;;;2.23;;
31754;SDS011;18325;52.018;4.726;2022-09-09T06:55:05;2.97;;;2.20;;
31754;SDS011;18325;52.018;4.726;2022-09-09T06:57:38;2.93;;;1.97;;
31754;SDS011;18325;52.018;4.726;2022-09-09T07:00:17;8.10;;;2.37;;
31754;SDS011;18325;52.018;4.726;2022-09-09T07:41:03;10.30;;;3.50;;
31754;SDS011;18325;52.018;4.726;2022-09-09T07:43:32;6.40;;;3.60;;
31754;SDS011;18325;52.018;4.726;2022-09-09T07:45:59;8.07;;;4.63;;
31754;SDS011;18325;52.018;4.726;2022-09-09T07:48:27;7.77;;;3.60;;
31754;SDS011;18325;52.018;4.726;2022-09-09T07:51:02;7.20;;;3.17;;
31754;SDS011;18325;52.018;4.726;2022-09-09T07:59:40;8.63;;;3.00;;
31754;SDS011;18325;52.018;4.726;2022-09-09T08:02:20;5.80;;;3.13;;
31754;SDS011;18325;52.018;4.726;2022-09-09T08:23:26;5.60;;;2.87;;
31754;SDS011;18325;52.018;4.726;2022-09-09T08:25:53;4.87;;;2.47;;
31754;SDS011;18325;52.018;4.726;2022-09-09T08:28:20;7.07;;;3.30;;
31754;SDS011;18325;52.018;4.726;2022-09-09T08:30:47;6.63;;;3.23;;
31754;SDS011;18325;52.018;4.726;2022-09-09T08:33:22;6.93;;;2.80;;
31754;SDS011;18325;52.018;4.726;2022-09-09T08:35:50;5.23;;;2.70;;
31754;SDS011;18325;52.018;4.726;2022-09-09T08:38:33;7.80;;;3.87;;
31754;SDS011;18325;52.018;4.726;2022-09-09T08:41:07;7.00;;;3.20;;
31754;SDS011;18325;52.018;4.726;2022-09-09T08:43:51;5.97;;;3.47;;
31754;SDS011;18325;52.018;4.726;2022-09-09T08:47:10;5.40;;;2.63;;
31754;SDS011;18325;52.018;4.726;2022-09-09T08:49:56;3.17;;;2.60;;
31754;SDS011;18325;52.018;4.726;2022-09-09T08:52:41;6.03;;;2.50;;
31754;SDS011;18325;52.018;4.726;2022-09-09T08:55:21;2.97;;;2.37;;
31754;SDS011;18325;52.018;4.726;2022-09-09T08:57:51;8.07;;;2.30;;
31754;SDS011;18325;52.018;4.726;2022-09-09T09:00:19;7.20;;;2.67;;
31754;SDS011;18325;52.018;4.726;2022-09-09T09:06:06;6.53;;;2.40;;
31754;SDS011;18325;52.018;4.726;2022-09-09T09:08:42;6.30;;;2.17;;
31754;SDS011;18325;52.018;4.726;2022-09-09T09:11:14;5.80;;;2.60;;
31754;SDS011;18325;52.018;4.726;2022-09-09T09:13:42;7.20;;;3.07;;
31754;SDS011;18325;52.018;4.726;2022-09-09T09:16:13;4.47;;;2.40;;
31754;SDS011;18325;52.018;4.726;2022-09-09T09:18:45;7.63;;;3.07;;
31754;SDS011;18325;52.018;4.726;2022-09-09T09:21:13;4.60;;;2.30;;
31754;SDS011;18325;52.018;4.726;2022-09-09T09:23:49;6.20;;;2.60;;
31754;SDS011;18325;52.018;4.726;2022-09-09T09:29:41;6.43;;;2.20;;
31754;SDS011;18325;52.018;4.726;2022-09-09T09:32:10;4.83;;;2.03;;
31754;SDS011;18325;52.018;4.726;2022-09-09T09:44:20;9.90;;;2.30;;
31754;SDS011;18325;52.018;4.726;2022-09-09T09:50:19;4.50;;;2.23;;
31754;SDS011;18325;52.018;4.726;2022-09-09T09:52:53;4.93;;;1.93;;
31754;SDS011;18325;52.018;4.726;2022-09-09T09:55:26;6.43;;;1.90;;
31754;SDS011;18325;52.018;4.726;2022-09-09T09:58:00;7.00;;;2.40;;
31754;SDS011;18325;52.018;4.726;2022-09-09T10:00:27;5.50;;;2.37;;
31754;SDS011;18325;52.018;4.726;2022-09-09T10:02:54;5.90;;;2.50;;
31754;SDS011;18325;52.018;4.726;2022-09-09T10:08:45;6.57;;;2.13;;
31754;SDS011;18325;52.018;4.726;2022-09-09T10:11:18;8.20;;;2.50;;
31754;SDS011;18325;52.018;4.726;2022-09-09T10:27:19;3.93;;;2.13;;
31754;SDS011;18325;52.018;4.726;2022-09-09T10:29:58;8.87;;;3.50;;
31754;SDS011;18325;52.018;4.726;2022-09-09T10:32:36;19.97;;;6.63;;
31754;SDS011;18325;52.018;4.726;2022-09-09T10:35:09;7.03;;;3.10;;
31754;SDS011;18325;52.018;4.726;2022-09-09T10:41:19;6.23;;;2.77;;
31754;SDS011;18325;52.018;4.726;2022-09-09T10:48:03;3.47;;;2.20;;
31754;SDS011;18325;52.018;4.726;2022-09-09T10:50:48;6.43;;;2.10;;
31754;SDS011;18325;52.018;4.726;2022-09-09T10:56:54;2.20;;;1.70;;
31754;SDS011;18325;52.018;4.726;2022-09-09T11:16:23;3.33;;;1.63;;
31754;SDS011;18325;52.018;4.726;2022-09-09T11:25:49;6.55;;;3.03;;
31754;SDS011;18325;52.018;4.726;2022-09-09T11:32:29;4.70;;;2.53;;
31754;SDS011;18325;52.018;4.726;2022-09-09T11:35:23;1.98;;;1.60;;
31754;SDS011;18325;52.018;4.726;2022-09-09T11:41:22;2.70;;;2.15;;
31754;SDS011;18325;52.018;4.726;2022-09-09T11:43:49;5.72;;;2.42;;
31754;SDS011;18325;52.018;4.726;2022-09-09T11:46:18;6.13;;;2.58;;
31754;SDS011;18325;52.018;4.726;2022-09-09T11:48:58;3.30;;;2.40;;
31754;SDS011;18325;52.018;4.726;2022-09-09T11:56:42;6.13;;;2.50;;
31754;SDS011;18325;52.018;4.726;2022-09-09T11:58:37;4.85;;;2.28;;
31754;SDS011;18325;52.018;4.726;2022-09-09T12:01:27;4.28;;;2.40;;
31754;SDS011;18325;52.018;4.726;2022-09-09T12:13:39;5.80;;;3.88;;
31754;SDS011;18325;52.018;4.726;2022-09-09T12:47:19;4.40;;;2.97;;
31754;SDS011;18325;52.018;4.726;2022-09-09T12:49:48;5.40;;;3.27;;
31754;SDS011;18325;52.018;4.726;2022-09-09T13:05:34;7.10;;;2.70;;
31754;SDS011;18325;52.018;4.726;2022-09-09T13:08:01;4.97;;;2.57;;
31754;SDS011;18325;52.018;4.726;2022-09-09T13:10:29;4.63;;;2.53;;
31754;SDS011;18325;52.018;4.726;2022-09-09T13:12:58;4.60;;;2.63;;
31754;SDS011;18325;52.018;4.726;2022-09-09T13:15:26;4.33;;;2.47;;
31754;SDS011;18325;52.018;4.726;2022-09-09T13:17:54;6.73;;;2.70;;
31754;SDS011;18325;52.018;4.726;2022-09-09T13:20:22;5.87;;;4.00;;
31754;SDS011;18325;52.018;4.726;2022-09-09T13:22:59;5.87;;;3.40;;
31754;SDS011;18325;52.018;4.726;2022-09-09T13:25:27;7.77;;;4.20;;
31754;SDS011;18325;52.018;4.726;2022-09-09T13:27:56;3.10;;;2.30;;
31754;SDS011;18325;52.018;4.726;2022-09-09T13:30:28;3.47;;;2.63;;
31754;SDS011;18325;52.018;4.726;2022-09-09T13:33:01;5.70;;;2.80;;
31754;SDS011;18325;52.018;4.726;2022-09-09T13:35:29;3.60;;;2.43;;
31754;SDS011;18325;52.018;4.726;2022-09-09T13:37:56;3.57;;;2.20;;
31754;SDS011;18325;52.018;4.726;2022-09-09T13:40:24;4.82;;;2.40;;
31754;SDS011;18325;52.018;4.726;2022-09-09T13:42:51;6.27;;;2.47;;
31754;SDS011;18325;52.018;4.726;2022-09-09T13:45:20;4.73;;;2.30;;
31754;SDS011;18325;52.018;4.726;2022-09-09T13:47:48;3.57;;;2.00;;
31754;SDS011;18325;52.018;4.726;2022-09-09T13:50:18;4.77;;;2.50;;
31754;SDS011;18325;52.018;4.726;2022-09-09T13:52:45;6.70;;;2.70;;
31754;SDS011;18325;52.018;4.726;2022-09-09T13:55:12;7.07;;;2.55;;
31754;SDS011;18325;52.018;4.726;2022-09-09T13:57:49;4.15;;;2.30;;
31754;SDS011;18325;52.018;4.726;2022-09-09T14:00:16;2.33;;;1.92;;
31754;SDS011;18325;52.018;4.726;2022-09-09T14:02:43;2.83;;;1.77;;
31754;SDS011;18325;52.018;4.726;2022-09-09T14:05:10;2.38;;;1.63;;
31754;SDS011;18325;52.018;4.726;2022-09-09T14:07:37;1.95;;;1.60;;
31754;SDS011;18325;52.018;4.726;2022-09-09T14:10:05;3.05;;;1.40;;
31754;SDS011;18325;52.018;4.726;2022-09-09T14:12:32;4.32;;;1.13;;
31754;SDS011;18325;52.018;4.726;2022-09-09T14:15:02;3.88;;;1.50;;
31754;SDS011;18325;52.018;4.726;2022-09-09T14:17:28;1.85;;;1.10;;
31754;SDS011;18325;52.018;4.726;2022-09-09T14:19:56;5.18;;;1.60;;
31754;SDS011;18325;52.018;4.726;2022-09-09T14:22:23;1.58;;;1.35;;
31754;SDS011;18325;52.018;4.726;2022-09-09T14:24:50;2.50;;;1.17;;
31754;SDS011;18325;52.018;4.726;2022-09-09T14:27:17;4.40;;;1.70;;
31754;SDS011;18325;52.018;4.726;2022-09-09T14:29:43;9.10;;;3.50;;
31754;SDS011;18325;52.018;4.726;2022-09-09T14:32:11;9.07;;;4.60;;
31754;SDS011;18325;52.018;4.726;2022-09-09T14:34:38;1.80;;;1.70;;
31754;SDS011;18325;52.018;4.726;2022-09-09T14:37:05;2.50;;;1.63;;
31754;SDS011;18325;52.018;4.726;2022-09-09T14:39:31;2.80;;;1.40;;
31754;SDS011;18325;52.018;4.726;2022-09-09T14:41:58;4.63;;;1.75;;
31754;SDS011;18325;52.018;4.726;2022-09-09T14:44:24;4.77;;;1.60;;
31754;SDS011;18325;52.018;4.726;2022-09-09T14:46:51;3.00;;;1.80;;
31754;SDS011;18325;52.018;4.726;2022-09-09T14:49:19;3.27;;;1.87;;
31754;SDS011;18325;52.018;4.726;2022-09-09T14:51:46;1.85;;;1.48;;
31754;SDS011;18325;52.018;4.726;2022-09-09T14:54:13;3.60;;;2.08;;
31754;SDS011;18325;52.018;4.726;2022-09-09T14:56:39;4.72;;;1.80;;
31754;SDS011;18325;52.018;4.726;2022-09-09T14:59:06;3.40;;;1.67;;
31754;SDS011;18325;52.018;4.726;2022-09-09T15:01:32;3.60;;;1.83;;
31754;SDS011;18325;52.018;4.726;2022-09-09T15:03:59;2.15;;;1.65;;
31754;SDS011;18325;52.018;4.726;2022-09-09T15:06:30;2.70;;;1.92;;
31754;SDS011;18325;52.018;4.726;2022-09-09T15:08:58;5.40;;;1.75;;
31754;SDS011;18325;52.018;4.726;2022-09-09T15:11:41;4.13;;;1.67;;
31754;SDS011;18325;52.018;4.726;2022-09-09T15:14:09;2.70;;;1.63;;
31754;SDS011;18325;52.018;4.726;2022-09-09T15:16:37;2.28;;;1.58;;
31754;SDS011;18325;52.018;4.726;2022-09-09T15:19:04;3.60;;;1.63;;
31754;SDS011;18325;52.018;4.726;2022-09-09T15:21:33;4.88;;;1.67;;
31754;SDS011;18325;52.018;4.726;2022-09-09T15:24:01;3.80;;;1.50;;
31754;SDS011;18325;52.018;4.726;2022-09-09T15:26:27;5.53;;;1.80;;
31754;SDS011;18325;52.018;4.726;2022-09-09T15:28:55;3.78;;;1.90;;
31754;SDS011;18325;52.018;4.726;2022-09-09T15:31:25;2.17;;;1.33;;
31754;SDS011;18325;52.018;4.726;2022-09-09T15:33:53;2.47;;;1.50;;
31754;SDS011;18325;52.018;4.726;2022-09-09T15:36:25;2.33;;;1.35;;
31754;SDS011;18325;52.018;4.726;2022-09-09T15:38:55;3.70;;;1.70;;
31754;SDS011;18325;52.018;4.726;2022-09-09T15:41:22;3.92;;;1.67;;
31754;SDS011;18325;52.018;4.726;2022-09-09T15:46:50;5.80;;;1.98;;
31754;SDS011;18325;52.018;4.726;2022-09-09T15:49:19;4.47;;;1.40;;
31754;SDS011;18325;52.018;4.726;2022-09-09T15:51:47;5.70;;;2.20;;
31754;SDS011;18325;52.018;4.726;2022-09-09T15:54:18;6.75;;;1.92;;
31754;SDS011;18325;52.018;4.726;2022-09-09T15:56:49;2.83;;;1.60;;
31754;SDS011;18325;52.018;4.726;2022-09-09T15:59:17;5.03;;;1.80;;
31754;SDS011;18325;52.018;4.726;2022-09-09T16:01:43;3.55;;;1.70;;
31754;SDS011;18325;52.018;4.726;2022-09-09T16:04:10;8.30;;;2.78;;
31754;SDS011;18325;52.018;4.726;2022-09-09T16:06:36;7.28;;;2.95;;
31754;SDS011;18325;52.018;4.726;2022-09-09T16:09:04;7.57;;;2.67;;
31754;SDS011;18325;52.018;4.726;2022-09-09T16:11:34;6.93;;;2.47;;
31754;SDS011;18325;52.018;4.726;2022-09-09T16:14:01;6.07;;;2.58;;
31754;SDS011;18325;52.018;4.726;2022-09-09T16:16:28;5.60;;;2.67;;
31754;SDS011;18325;52.018;4.726;2022-09-09T16:18:56;4.45;;;2.47;;
31754;SDS011;18325;52.018;4.726;2022-09-09T16:21:25;6.13;;;2.65;;
31754;SDS011;18325;52.018;4.726;2022-09-09T16:23:54;6.18;;;3.28;;
31754;SDS011;18325;52.018;4.726;2022-09-09T16:26:21;5.20;;;3.00;;
31754;SDS011;18325;52.018;4.726;2022-09-09T16:28:50;6.88;;;3.63;;
31754;SDS011;18325;52.018;4.726;2022-09-09T16:31:20;9.32;;;4.00;;
31754;SDS011;18325;52.018;4.726;2022-09-09T16:33:47;10.43;;;4.03;;
31754;SDS011;18325;52.018;4.726;2022-09-09T16:36:18;8.85;;;3.63;;
31754;SDS011;18325;52.018;4.726;2022-09-09T16:38:56;5.93;;;3.80;;
31754;SDS011;18325;52.018;4.726;2022-09-09T16:41:23;7.63;;;3.70;;
31754;SDS011;18325;52.018;4.726;2022-09-09T16:43:53;17.55;;;9.75;;
31754;SDS011;18325;52.018;4.726;2022-09-09T16:46:20;9.82;;;4.78;;
31754;SDS011;18325;52.018;4.726;2022-09-09T16:48:49;9.82;;;5.20;;
31754;SDS011;18325;52.018;4.726;2022-09-09T16:51:16;6.70;;;4.03;;
31754;SDS011;18325;52.018;4.726;2022-09-09T16:53:44;8.80;;;3.88;;
31754;SDS011;18325;52.018;4.726;2022-09-09T16:56:12;4.47;;;3.63;;
31754;SDS011;18325;52.018;4.726;2022-09-09T16:58:39;7.00;;;3.90;;
31754;SDS011;18325;52.018;4.726;2022-09-09T17:01:09;9.32;;;4.13;;
31754;SDS011;18325;52.018;4.726;2022-09-09T17:03:39;7.45;;;3.53;;
31754;SDS011;18325;52.018;4.726;2022-09-09T17:06:08;7.80;;;3.50;;
31754;SDS011;18325;52.018;4.726;2022-09-09T17:08:35;6.85;;;3.20;;
31754;SDS011;18325;52.018;4.726;2022-09-09T17:11:01;6.40;;;3.40;;
31754;SDS011;18325;52.018;4.726;2022-09-09T17:13:29;5.25;;;3.47;;
31754;SDS011;18325;52.018;4.726;2022-09-09T17:15:55;3.90;;;2.95;;
31754;SDS011;18325;52.018;4.726;2022-09-09T17:18:25;4.38;;;3.30;;
31754;SDS011;18325;52.018;4.726;2022-09-09T17:20:53;4.50;;;2.90;;
31754;SDS011;18325;52.018;4.726;2022-09-09T17:23:19;5.35;;;2.97;;
31754;SDS011;18325;52.018;4.726;2022-09-09T17:25:55;10.07;;;4.82;;
31754;SDS011;18325;52.018;4.726;2022-09-09T17:28:22;6.63;;;4.50;;
31754;SDS011;18325;52.018;4.726;2022-09-09T17:30:52;8.70;;;5.95;;
31754;SDS011;18325;52.018;4.726;2022-09-09T17:33:19;21.67;;;9.27;;
31754;SDS011;18325;52.018;4.726;2022-09-09T17:35:47;7.00;;;4.75;;
31754;SDS011;18325;52.018;4.726;2022-09-09T17:38:14;4.78;;;2.95;;
31754;SDS011;18325;52.018;4.726;2022-09-09T17:40:41;8.00;;;3.08;;
31754;SDS011;18325;52.018;4.726;2022-09-09T17:43:07;6.18;;;3.75;;
31754;SDS011;18325;52.018;4.726;2022-09-09T17:45:34;7.00;;;2.83;;
31754;SDS011;18325;52.018;4.726;2022-09-09T17:48:01;4.85;;;3.47;;
31754;SDS011;18325;52.018;4.726;2022-09-09T17:50:29;3.92;;;2.70;;
31754;SDS011;18325;52.018;4.726;2022-09-09T17:52:58;4.65;;;2.97;;
31754;SDS011;18325;52.018;4.726;2022-09-09T17:55:24;5.53;;;3.05;;
31754;SDS011;18325;52.018;4.726;2022-09-09T17:57:51;6.25;;;2.53;;
31754;SDS011;18325;52.018;4.726;2022-09-09T18:00:28;3.97;;;2.45;;
31754;SDS011;18325;52.018;4.726;2022-09-09T18:02:55;3.58;;;2.53;;
31754;SDS011;18325;52.018;4.726;2022-09-09T18:05:22;3.42;;;2.78;;
31754;SDS011;18325;52.018;4.726;2022-09-09T18:07:48;4.88;;;3.30;;
31754;SDS011;18325;52.018;4.726;2022-09-09T18:10:16;6.93;;;3.03;;
31754;SDS011;18325;52.018;4.726;2022-09-09T18:12:43;7.15;;;2.85;;
31754;SDS011;18325;52.018;4.726;2022-09-09T18:15:11;3.72;;;2.80;;
31754;SDS011;18325;52.018;4.726;2022-09-09T18:17:41;8.73;;;3.33;;
31754;SDS011;18325;52.018;4.726;2022-09-09T18:20:09;4.68;;;2.80;;
31754;SDS011;18325;52.018;4.726;2022-09-09T18:22:36;6.28;;;2.90;;
31754;SDS011;18325;52.018;4.726;2022-09-09T18:25:02;6.97;;;2.80;;
31754;SDS011;18325;52.018;4.726;2022-09-09T18:27:31;4.68;;;2.50;;
31754;SDS011;18325;52.018;4.726;2022-09-09T18:29:57;5.28;;;2.25;;
31754;SDS011;18325;52.018;4.726;2022-09-09T18:32:24;6.68;;;2.15;;
31754;SDS011;18325;52.018;4.726;2022-09-09T18:34:53;3.28;;;2.28;;
31754;SDS011;18325;52.018;4.726;2022-09-09T18:37:27;8.55;;;2.55;;
31754;SDS011;18325;52.018;4.726;2022-09-09T18:39:58;3.90;;;2.30;;
31754;SDS011;18325;52.018;4.726;2022-09-09T18:42:24;3.15;;;1.65;;
31754;SDS011;18325;52.018;4.726;2022-09-09T18:44:52;2.67;;;1.58;;
31754;SDS011;18325;52.018;4.726;2022-09-09T18:47:19;3.30;;;1.98;;
31754;SDS011;18325;52.018;4.726;2022-09-09T18:49:46;2.85;;;1.50;;
31754;SDS011;18325;52.018;4.726;2022-09-09T18:52:14;4.70;;;2.03;;
31754;SDS011;18325;52.018;4.726;2022-09-09T18:54:41;2.55;;;1.67;;
31754;SDS011;18325;52.018;4.726;2022-09-09T18:57:09;3.20;;;2.08;;
31754;SDS011;18325;52.018;4.726;2022-09-09T18:59:36;3.60;;;1.80;;
31754;SDS011;18325;52.018;4.726;2022-09-09T19:02:04;5.25;;;1.45;;